Главная страница
METAR-TAF:

METAR-TAF

Аэропорты :

Бахрейн, Бахрейн

широта: 26-16N, долгота: 050-39E, высота над уровнем моря: 2 м

Текущие метеонаблюдения

Эта сводка был подготовлена 20 минут назад, в 11:30 UTC
Ветер 21 Узел от северо-западный
Температура 17°C
Влажность 59%
Давление 1022 hPa
Видимость 10 км и более
небольшая облачность на высоте 3000 фута

METAR: OBBI 271130Z 31021KT 9999 FEW030 17/09 Q1022 NOSIG

Время: 14:50 (11:50 UTC)

Прогноз

Эта сводка был подготовлена 50 минут назад, в 11:00 UTC
Прогноз действительный с 27-го 12 UTC до 28-го 18 UTC
Ветер 17 Узел от северо-западный с порывами до 27 Узел
Видимость 10 км и более
небольшая облачность на высоте 3000 фута
изменения
С 27-го 15 UTC до 27-го 17 UTC
Ветер 14 Узел от северо-западный

TAF: OBBI 271100Z 2712/2818 31017G27KT 9999 FEW030 BECMG 2715/2717 32014KT

Метеонаблюдения и прогнозы для более 4000 аэропортов (сводки METAR и TAF).

Имеющиеся станции представлены на карте желтыми и красными точками.

Чтобы увидеть название станции, наведите на нее мышь.

Затем щелкните, чтобы увидеть метеонаблюдения и метеопрогнозы.

Управление картой: чтобы увеличить масштаб, щелкните зеленые кнопки с черным крестиком; чтобы уменьшить масштаб, щелкните зеленую кнопку с тире; для просмотра соседних карт щелкайте зеленые стрелки.


METAR-TAF: